Time;durP1;ratioP1;P1;durP2;ratioP2;P2;SDS_P1;SDS_P2;PMS_P1;PMS_P2;Temp;Humidity;BMP_temperature;BMP_pressure;BME280_temperature;BME280_humidity;BME280_pressure;Samples;Min_cycle;Max_cycle;Signal;HPM_P1;HPM_P2
2022/03/07 00:00:09;;;;;;;28.05;13.05;;;-2.80;99.90;;;;;;5001826;28;20053;-85
2022/03/07 00:02:35;;;;;;;38.33;14.60;;;-2.80;99.90;;;;;;5002917;28;20041;-84
2022/03/07 00:05:00;;;;;;;45.65;16.33;;;-2.80;99.90;;;;;;5020352;28;20046;-84
2022/03/07 00:07:26;;;;;;;34.45;15.45;;;-2.80;99.90;;;;;;5019691;28;20060;-84
2022/03/07 00:09:51;;;;;;;38.88;14.90;;;-2.70;99.90;;;;;;5011128;28;20089;-84
2022/03/07 00:12:17;;;;;;;34.03;13.70;;;-2.70;99.90;;;;;;5016083;28;20050;-84
2022/03/07 00:14:42;;;;;;;31.75;15.05;;;-2.60;99.90;;;;;;5018432;28;20038;-84
2022/03/07 00:17:08;;;;;;;39.45;14.32;;;-2.70;99.90;;;;;;5023746;28;20045;-84
2022/03/07 00:19:33;;;;;;;33.97;13.57;;;-2.70;99.90;;;;;;5003064;28;20137;-84
2022/03/07 00:21:59;;;;;;;42.65;13.80;;;-2.70;99.90;;;;;;5010467;28;20404;-84
2022/03/07 00:24:24;;;;;;;34.08;13.68;;;-2.70;99.90;;;;;;5010816;28;20485;-84
2022/03/07 00:26:50;;;;;;;42.67;16.52;;;-2.70;99.90;;;;;;5010625;28;20077;-83
2022/03/07 00:29:17;;;;;;;43.42;16.02;;;-2.70;99.90;;;;;;4992512;28;20717;-84
2022/03/07 00:31:44;;;;;;;37.92;14.60;;;-2.70;99.90;;;;;;5010747;28;20045;-85
2022/03/07 00:34:10;;;;;;;35.33;15.02;;;-2.70;99.90;;;;;;5013420;28;20049;-85
2022/03/07 00:36:35;;;;;;;36.40;15.60;;;-2.70;99.90;;;;;;4996713;28;20046;-85
2022/03/07 00:39:01;;;;;;;37.85;15.80;;;-1.90;99.90;;;;;;4980822;28;20136;-85
2022/03/07 00:41:26;;;;;;;39.35;14.88;;;-2.00;99.90;;;;;;5014035;28;20128;-86
2022/03/07 00:43:52;;;;;;;44.78;15.18;;;-2.90;99.90;;;;;;4996271;28;20057;-86
2022/03/07 00:46:17;;;;;;;32.83;14.30;;;-2.90;99.90;;;;;;5014508;28;20054;-85
2022/03/07 00:48:43;;;;;;;32.50;13.35;;;-2.90;99.90;;;;;;5014548;28;20125;-85
2022/03/07 00:51:11;;;;;;;31.52;13.93;;;-2.90;99.90;;;;;;4996595;28;20046;-85
2022/03/07 00:53:37;;;;;;;35.80;14.15;;;-2.90;99.90;;;;;;4996110;28;20042;-85
2022/03/07 00:56:03;;;;;;;32.60;14.00;;;-2.90;99.90;;;;;;4995701;28;20385;-85
2022/03/07 00:58:28;;;;;;;32.60;13.57;;;-2.90;99.90;;;;;;5013012;28;20057;-85
2022/03/07 01:00:54;;;;;;;34.60;13.10;;;-2.80;99.90;;;;;;5012832;28;20396;-86
2022/03/07 01:03:20;;;;;;;40.35;15.82;;;-2.90;99.90;;;;;;4996046;28;20049;-85
2022/03/07 01:05:46;;;;;;;39.45;15.35;;;-2.90;99.90;;;;;;4996374;28;20447;-85
2022/03/07 01:08:12;;;;;;;34.75;14.05;;;-2.90;99.90;;;;;;4998251;28;20049;-85
2022/03/07 01:10:38;;;;;;;38.67;14.50;;;-2.90;99.90;;;;;;4997865;28;20053;-85
2022/03/07 01:13:05;;;;;;;41.88;13.95;;;-2.90;99.90;;;;;;4997761;28;20049;-85
2022/03/07 01:15:31;;;;;;;32.13;14.95;;;-2.90;99.90;;;;;;5015973;28;20139;-84
2022/03/07 01:17:59;;;;;;;40.45;16.42;;;-3.00;99.90;;;;;;5013588;28;20100;-84
2022/03/07 01:20:25;;;;;;;33.38;14.18;;;-3.10;99.90;;;;;;4995356;28;20061;-84
2022/03/07 01:22:51;;;;;;;46.80;16.67;;;-3.20;99.90;;;;;;5014717;28;20583;-84
2022/03/07 01:25:17;;;;;;;31.02;13.18;;;-3.30;99.90;;;;;;5016129;28;20081;-84
2022/03/07 01:27:43;;;;;;;32.35;13.80;;;-3.40;99.90;;;;;;5018438;28;20124;-84
2022/03/07 01:30:09;;;;;;;35.47;14.98;;;-3.30;99.90;;;;;;5001535;28;20100;-85
2022/03/07 01:32:35;;;;;;;32.95;13.43;;;-3.30;99.90;;;;;;4987633;28;20052;-85
2022/03/07 01:35:00;;;;;;;37.72;15.15;;;-3.30;99.90;;;;;;5018277;28;20121;-85
2022/03/07 01:37:26;;;;;;;37.60;15.35;;;-3.40;99.90;;;;;;5018119;28;20073;-85
2022/03/07 01:39:51;;;;;;;40.22;14.65;;;-3.50;99.90;;;;;;5015938;28;20042;-84
2022/03/07 01:42:17;;;;;;;39.15;16.33;;;-3.60;99.90;;;;;;5016016;28;20046;-84
2022/03/07 01:44:43;;;;;;;42.17;16.15;;;-3.60;99.90;;;;;;5015686;28;20382;-85
2022/03/07 01:47:08;;;;;;;38.58;15.02;;;-3.60;99.90;;;;;;4998382;28;20412;-85
2022/03/07 01:49:34;;;;;;;45.72;15.23;;;-3.60;99.90;;;;;;4982142;28;20045;-84
2022/03/07 01:52:00;;;;;;;41.53;15.18;;;-3.50;99.90;;;;;;4998573;28;20567;-84
2022/03/07 01:54:26;;;;;;;38.92;14.38;;;-3.40;99.90;;;;;;5015676;28;20050;-85
2022/03/07 01:56:53;;;;;;;33.22;13.73;;;-3.40;99.90;;;;;;4997952;28;20046;-85
2022/03/07 01:59:25;;;;;;;40.75;14.57;;;-3.40;99.90;;;;;;4981570;28;20046;-85
2022/03/07 02:01:51;;;;;;;39.65;16.42;;;-3.40;99.90;;;;;;5015641;28;20042;-85
2022/03/07 02:04:17;;;;;;;35.63;16.00;;;-3.40;99.90;;;;;;5015539;28;20117;-84
2022/03/07 02:06:45;;;;;;;33.88;15.82;;;-3.40;99.90;;;;;;5015680;28;20169;-84
2022/03/07 02:09:11;;;;;;;39.50;16.33;;;-3.40;99.90;;;;;;4997510;28;20041;-84
2022/03/07 02:11:38;;;;;;;37.35;14.98;;;-3.40;99.90;;;;;;4998232;28;20129;-84
2022/03/07 02:14:15;;;;;;;36.65;15.48;;;-3.50;99.90;;;;;;4998104;28;20576;-85
2022/03/07 02:16:42;;;;;;;37.53;14.75;;;-3.50;99.90;;;;;;4997722;28;20056;-84
2022/03/07 02:19:08;;;;;;;40.03;14.38;;;-3.60;99.90;;;;;;4997129;28;20067;-85
2022/03/07 02:21:34;;;;;;;39.40;13.63;;;-3.60;99.90;;;;;;4997758;28;20042;-84
2022/03/07 02:24:00;;;;;;;30.70;13.07;;;-3.60;99.90;;;;;;4998314;28;20073;-85
2022/03/07 02:26:26;;;;;;;38.05;14.57;;;-3.60;99.90;;;;;;5014908;28;20073;-84
2022/03/07 02:28:52;;;;;;;30.73;12.73;;;-3.60;99.90;;;;;;5014606;28;20496;-84
2022/03/07 02:31:20;;;;;;;34.50;14.60;;;-3.60;99.90;;;;;;5014593;28;20042;-84
2022/03/07 02:33:46;;;;;;;38.72;14.27;;;-3.70;99.90;;;;;;5014904;28;20118;-84
2022/03/07 02:36:11;;;;;;;36.28;15.45;;;-3.70;99.90;;;;;;5014670;28;20046;-85
2022/03/07 02:38:37;;;;;;;35.72;13.65;;;-3.70;99.90;;;;;;5014683;28;20072;-85
2022/03/07 02:41:03;;;;;;;40.45;14.43;;;-3.80;99.90;;;;;;4996833;28;20041;-84
2022/03/07 02:43:28;;;;;;;49.00;14.88;;;-3.70;99.90;;;;;;5014287;28;20119;-84
2022/03/07 02:45:55;;;;;;;39.15;14.18;;;-3.70;99.90;;;;;;5014532;28;20050;-84
2022/03/07 02:48:21;;;;;;;36.05;13.40;;;-3.90;99.90;;;;;;5014384;28;20125;-85
2022/03/07 02:50:47;;;;;;;34.92;15.48;;;-3.90;99.90;;;;;;4996873;28;20176;-84
2022/03/07 02:53:13;;;;;;;34.95;12.13;;;-4.00;99.90;;;;;;4996863;28;20053;-84
2022/03/07 02:55:39;;;;;;;31.85;13.35;;;-4.00;99.90;;;;;;5014507;28;20042;-84
2022/03/07 02:58:05;;;;;;;33.15;12.07;;;-3.90;99.90;;;;;;4996804;28;20496;-84
2022/03/07 03:00:32;;;;;;;31.50;13.18;;;-3.90;99.90;;;;;;4996694;28;20048;-85
2022/03/07 03:02:57;;;;;;;31.52;12.32;;;-3.90;99.90;;;;;;5014273;28;20042;-85
2022/03/07 03:05:23;;;;;;;31.17;12.95;;;-3.90;99.90;;;;;;5014118;28;20125;-84
2022/03/07 03:07:51;;;;;;;29.58;11.98;;;-3.90;99.90;;;;;;5014218;28;20507;-84
2022/03/07 03:10:17;;;;;;;39.30;13.88;;;-3.90;99.90;;;;;;5014438;28;20050;-85
2022/03/07 03:12:44;;;;;;;37.67;14.95;;;-3.90;99.90;;;;;;5014969;28;20046;-85
2022/03/07 03:15:10;;;;;;;35.90;13.77;;;-3.80;99.90;;;;;;4996765;28;20441;-85
2022/03/07 03:17:40;;;;;;;37.15;14.00;;;-3.80;99.90;;;;;;4996460;28;20042;-85
2022/03/07 03:20:06;;;;;;;33.08;12.93;;;-3.80;99.90;;;;;;4996185;28;20042;-85
2022/03/07 03:22:32;;;;;;;31.05;12.98;;;-3.90;99.90;;;;;;5014024;28;20512;-85
2022/03/07 03:24:57;;;;;;;32.17;12.82;;;-3.90;99.90;;;;;;4996241;28;20084;-85
2022/03/07 03:27:23;;;;;;;40.70;14.07;;;-3.90;99.90;;;;;;5014163;28;20053;-84
2022/03/07 03:29:48;;;;;;;30.35;12.70;;;-4.00;99.90;;;;;;5013640;28;20096;-84
2022/03/07 03:32:15;;;;;;;30.17;11.45;;;-4.00;99.90;;;;;;5013861;28;20100;-84
2022/03/07 03:34:41;;;;;;;29.92;12.40;;;-4.00;99.90;;;;;;5013887;28;20096;-84
2022/03/07 03:37:07;;;;;;;31.00;13.02;;;-4.00;99.90;;;;;;5013594;28;20432;-84
2022/03/07 03:39:32;;;;;;;42.17;12.77;;;-4.00;99.90;;;;;;5013367;28;20046;-84
2022/03/07 03:41:58;;;;;;;28.98;12.07;;;-4.00;99.90;;;;;;5013654;28;20053;-84
2022/03/07 03:44:23;;;;;;;34.10;13.00;;;-4.00;99.90;;;;;;5013247;28;20104;-84
2022/03/07 03:46:49;;;;;;;32.15;12.93;;;-4.00;99.90;;;;;;5013200;28;20038;-84
2022/03/07 03:49:14;;;;;;;34.20;11.68;;;-4.10;99.90;;;;;;5012401;28;20408;-84
2022/03/07 03:51:41;;;;;;;32.38;12.85;;;-3.60;99.90;;;;;;4995437;28;20049;-84
2022/03/07 03:54:07;;;;;;;36.45;13.00;;;-3.60;99.90;;;;;;4995456;28;20484;-84
2022/03/07 03:56:32;;;;;;;38.33;12.20;;;-3.70;99.90;;;;;;5012992;28;20053;-84
2022/03/07 03:58:58;;;;;;;31.85;12.70;;;-3.90;99.90;;;;;;4995231;28;20041;-84
2022/03/07 04:01:24;;;;;;;32.28;12.25;;;-3.90;99.90;;;;;;5012956;28;20528;-85
2022/03/07 04:03:49;;;;;;;30.98;11.98;;;-4.00;99.90;;;;;;5012783;28;20108;-84
2022/03/07 04:06:15;;;;;;;39.40;13.23;;;-4.00;99.90;;;;;;5012606;28;20042;-84
2022/03/07 04:08:41;;;;;;;38.17;13.15;;;-4.10;99.90;;;;;;4995268;28;20050;-84
2022/03/07 04:11:06;;;;;;;27.13;12.18;;;-4.20;99.90;;;;;;5012448;28;20056;-84
2022/03/07 04:13:32;;;;;;;38.55;13.52;;;-4.30;99.90;;;;;;5012961;28;20050;-84
2022/03/07 04:15:57;;;;;;;33.88;12.50;;;-4.30;99.90;;;;;;5012893;28;20041;-84
2022/03/07 04:18:23;;;;;;;32.67;12.98;;;-4.30;99.90;;;;;;5012540;28;20375;-84
2022/03/07 04:20:49;;;;;;;30.00;11.77;;;-4.40;99.90;;;;;;5012505;28;20064;-84
2022/03/07 04:23:20;;;;;;;30.38;12.52;;;-4.30;99.90;;;;;;5012572;28;20404;-84
2022/03/07 04:25:49;;;;;;;30.73;12.52;;;-4.30;99.90;;;;;;4994892;28;20050;-83
2022/03/07 04:28:15;;;;;;;33.75;13.23;;;-4.20;99.90;;;;;;4975594;28;20082;-84
2022/03/07 04:30:41;;;;;;;31.52;12.55;;;-4.20;99.90;;;;;;4975881;28;20096;-84
2022/03/07 04:33:09;;;;;;;31.95;12.25;;;-4.20;99.90;;;;;;4975777;28;20055;-84
2022/03/07 04:35:35;;;;;;;30.50;11.48;;;-4.10;99.90;;;;;;4975702;28;20453;-84
2022/03/07 04:38:01;;;;;;;42.03;14.10;;;-4.10;99.90;;;;;;4975527;28;20405;-84
2022/03/07 04:40:27;;;;;;;31.77;12.70;;;-4.10;99.90;;;;;;4975684;28;20042;-84
2022/03/07 04:42:55;;;;;;;33.00;12.60;;;-4.10;99.90;;;;;;4959542;28;20497;-84
2022/03/07 04:45:21;;;;;;;35.90;12.52;;;-4.10;99.90;;;;;;4993175;28;20520;-84
2022/03/07 04:47:47;;;;;;;38.20;13.40;;;-4.10;99.90;;;;;;4994787;28;20058;-84
2022/03/07 04:50:13;;;;;;;39.72;13.00;;;-4.10;99.90;;;;;;4994829;28;20049;-84
2022/03/07 04:52:39;;;;;;;31.30;12.75;;;-4.10;99.90;;;;;;4994903;28;20481;-84
2022/03/07 04:55:05;;;;;;;39.65;13.55;;;-4.10;99.90;;;;;;5012514;28;20128;-84
2022/03/07 04:57:31;;;;;;;38.97;13.40;;;-4.10;99.90;;;;;;4994689;28;20100;-84
2022/03/07 04:59:56;;;;;;;42.97;14.93;;;-4.10;99.90;;;;;;4995056;28;20078;-84
2022/03/07 05:02:22;;;;;;;47.17;15.02;;;-4.10;99.90;;;;;;5015377;28;20050;-84
2022/03/07 05:04:47;;;;;;;53.40;15.52;;;-4.10;99.90;;;;;;5016145;28;20507;-84
2022/03/07 05:07:13;;;;;;;49.25;16.27;;;-4.20;99.90;;;;;;4982092;28;20050;-83
2022/03/07 05:09:38;;;;;;;46.28;15.32;;;-4.20;99.90;;;;;;5016131;28;20123;-84
2022/03/07 05:12:04;;;;;;;41.22;15.40;;;-4.20;99.90;;;;;;5016116;28;20496;-84
2022/03/07 05:14:30;;;;;;;32.10;13.65;;;-4.30;99.90;;;;;;4998369;28;20042;-84
2022/03/07 05:16:56;;;;;;;37.28;14.55;;;-4.30;99.90;;;;;;5015502;28;20104;-84
2022/03/07 05:19:21;;;;;;;36.08;14.73;;;-4.30;99.90;;;;;;4998274;28;20496;-84
2022/03/07 05:21:47;;;;;;;39.88;14.23;;;-4.30;99.90;;;;;;4998527;28;20480;-84
2022/03/07 05:24:12;;;;;;;38.13;13.52;;;-4.30;99.90;;;;;;5016012;28;20129;-84
2022/03/07 05:26:38;;;;;;;39.10;14.20;;;-4.30;99.90;;;;;;5015545;28;20041;-84
2022/03/07 05:29:06;;;;;;;42.45;14.35;;;-4.30;99.90;;;;;;4998240;28;20081;-84
2022/03/07 05:31:32;;;;;;;44.50;13.30;;;-4.30;99.90;;;;;;4998177;28;20394;-84
2022/03/07 05:33:57;;;;;;;33.88;12.60;;;-4.30;99.90;;;;;;5018778;28;20053;-84
2022/03/07 05:36:23;;;;;;;34.42;14.07;;;-4.30;99.90;;;;;;5007549;28;20405;-84
2022/03/07 05:38:49;;;;;;;35.13;13.48;;;-4.30;99.90;;;;;;5031056;28;20519;-83
2022/03/07 05:41:14;;;;;;;34.55;15.02;;;-4.30;99.90;;;;;;5035170;28;20056;-84
2022/03/07 05:43:40;;;;;;;36.45;14.63;;;-4.40;99.90;;;;;;5035251;28;20060;-84
2022/03/07 05:46:06;;;;;;;37.38;12.88;;;-4.40;99.90;;;;;;5031971;28;20505;-84
2022/03/07 05:48:32;;;;;;;37.25;12.98;;;-4.40;99.90;;;;;;5006101;28;20117;-84
2022/03/07 05:50:58;;;;;;;35.63;14.43;;;-4.30;99.90;;;;;;5026618;28;20469;-84
2022/03/07 05:53:24;;;;;;;34.17;13.77;;;-4.30;99.90;;;;;;5016418;28;20055;-83
2022/03/07 05:55:50;;;;;;;41.67;14.95;;;-4.30;99.90;;;;;;5034041;28;20087;-84
2022/03/07 05:58:16;;;;;;;31.98;12.98;;;-4.30;99.90;;;;;;4999212;28;20046;-83
2022/03/07 06:00:42;;;;;;;38.78;14.00;;;-4.30;99.90;;;;;;4995030;28;20052;-83
2022/03/07 06:03:07;;;;;;;38.17;13.75;;;-4.30;99.90;;;;;;4995304;28;20053;-84
2022/03/07 06:05:33;;;;;;;43.97;14.45;;;-4.40;99.90;;;;;;4994889;28;20053;-83
2022/03/07 06:07:59;;;;;;;36.83;13.65;;;-4.40;99.90;;;;;;5012137;28;20500;-83
2022/03/07 06:10:25;;;;;;;32.65;14.30;;;-4.30;99.90;;;;;;4997784;28;20038;-84
2022/03/07 06:12:51;;;;;;;44.08;15.60;;;-4.50;99.90;;;;;;4995786;28;20046;-84
2022/03/07 06:15:17;;;;;;;36.40;14.30;;;-4.50;99.90;;;;;;5014704;28;20046;-84
2022/03/07 06:17:53;;;;;;;33.00;13.82;;;-4.60;99.90;;;;;;5015071;28;20038;-84
2022/03/07 06:20:20;;;;;;;34.97;13.70;;;-4.70;99.90;;;;;;5015026;28;20046;-84
2022/03/07 06:22:46;;;;;;;37.67;14.93;;;-4.70;99.90;;;;;;5014646;28;20090;-84
2022/03/07 06:25:11;;;;;;;41.45;14.93;;;-4.60;99.90;;;;;;4997162;28;20073;-84
2022/03/07 06:27:37;;;;;;;46.33;18.77;;;-4.60;99.90;;;;;;4997321;28;20046;-84
2022/03/07 06:30:04;;;;;;;53.60;17.35;;;-4.50;99.90;;;;;;5014664;28;20504;-83
2022/03/07 06:32:29;;;;;;;41.33;15.48;;;-4.40;99.90;;;;;;4996820;28;20046;-84
2022/03/07 06:34:55;;;;;;;57.72;17.63;;;-4.40;99.90;;;;;;5014813;28;20049;-83
2022/03/07 06:37:21;;;;;;;40.05;16.48;;;-4.40;99.90;;;;;;4997049;28;20042;-84
2022/03/07 06:39:47;;;;;;;37.65;16.83;;;-4.40;99.90;;;;;;5014693;28;20381;-84
2022/03/07 06:42:12;;;;;;;41.20;16.30;;;-4.30;99.90;;;;;;5015202;28;20038;-83
2022/03/07 06:44:39;;;;;;;43.38;15.93;;;-4.30;99.90;;;;;;5015352;28;20412;-84
2022/03/07 06:47:14;;;;;;;47.20;15.75;;;-4.30;99.90;;;;;;5015871;28;20045;-84
2022/03/07 06:49:40;;;;;;;37.08;16.05;;;-4.30;99.90;;;;;;4997602;28;20046;-83
2022/03/07 06:52:06;;;;;;;38.00;16.05;;;-4.20;99.90;;;;;;5015180;28;20053;-85
2022/03/07 06:54:32;;;;;;;42.88;16.58;;;-4.10;99.90;;;;;;5015784;28;20044;-84
2022/03/07 06:56:57;;;;;;;48.58;16.85;;;-4.00;99.90;;;;;;4998329;28;20121;-84
2022/03/07 06:59:23;;;;;;;38.20;14.55;;;-4.00;99.90;;;;;;5015888;28;20163;-85
2022/03/07 07:01:49;;;;;;;36.92;15.55;;;-3.90;99.90;;;;;;5015743;28;20049;-85
2022/03/07 07:04:15;;;;;;;48.60;16.13;;;-3.90;99.90;;;;;;5015558;28;20050;-85
2022/03/07 07:06:40;;;;;;;39.10;14.60;;;-3.70;99.90;;;;;;5016158;28;20057;-84
2022/03/07 07:09:06;;;;;;;30.17;15.20;;;-3.70;99.90;;;;;;5015523;28;20042;-84
2022/03/07 07:11:32;;;;;;;40.17;16.52;;;-3.60;99.90;;;;;;5015200;28;20412;-83
2022/03/07 07:13:57;;;;;;;35.28;15.55;;;-3.50;99.90;;;;;;5015097;28;20073;-83
2022/03/07 07:16:23;;;;;;;35.53;14.75;;;-3.40;99.90;;;;;;4998049;28;20456;-84
2022/03/07 07:18:48;;;;;;;35.55;15.05;;;-3.30;99.90;;;;;;5014673;28;20046;-84
2022/03/07 07:21:14;;;;;;;33.78;15.20;;;-3.20;99.90;;;;;;5014199;28;20527;-84
2022/03/07 07:23:40;;;;;;;41.13;18.05;;;-3.00;99.90;;;;;;5013185;28;20056;-84
2022/03/07 07:26:07;;;;;;;44.80;18.33;;;-2.80;99.90;;;;;;5013611;28;20045;-84
2022/03/07 07:28:32;;;;;;;48.67;21.73;;;-2.70;99.90;;;;;;5014085;28;20129;-84
2022/03/07 07:30:58;;;;;;;39.95;18.60;;;-2.50;99.90;;;;;;5013724;28;20137;-83
2022/03/07 07:33:24;;;;;;;36.70;16.48;;;-2.30;99.90;;;;;;4996528;28;20046;-84
2022/03/07 07:35:50;;;;;;;36.63;16.33;;;-2.20;99.90;;;;;;5013818;28;20053;-83
2022/03/07 07:38:21;;;;;;;36.90;16.33;;;-2.00;99.90;;;;;;5214694;22;20023;-94
2022/03/07 07:40:49;;;;;;;47.75;17.65;;;-2.60;99.90;;;;;;5020283;28;20041;-95
2022/03/07 07:43:20;;;;;;;45.83;17.73;;;-1.90;99.90;;;;;;5022901;28;20026;-96
2022/03/07 07:45:49;;;;;;;41.30;17.33;;;-1.10;99.90;;;;;;5039238;28;20077;-96
2022/03/07 07:48:19;;;;;;;45.72;19.23;;;-0.90;99.90;;;;;;5038992;28;20044;-95
2022/03/07 07:50:49;;;;;;;48.22;20.08;;;-0.60;99.90;;;;;;5007361;28;20036;-95
2022/03/07 07:53:20;;;;;;;45.53;21.13;;;-1.70;99.90;;;;;;5039548;28;20026;-96
2022/03/07 07:55:46;;;;;;;48.78;21.17;;;-1.40;99.90;;;;;;5006423;28;20021;-96
2022/03/07 07:58:14;;;;;;;52.20;22.92;;;-1.00;99.90;;;;;;5006347;28;20025;-96
2022/03/07 08:01:04;;;;;;;58.80;22.35;;;-0.10;99.90;;;;;;5022550;28;20061;-95
2022/03/07 08:03:44;;;;;;;55.53;22.73;;;-0.80;99.90;;;;;;5007100;28;20086;-95
2022/03/07 08:06:10;;;;;;;59.97;23.73;;;-0.10;99.90;;;;;;5022277;28;20064;-95
2022/03/07 08:08:55;;;;;;;56.05;23.92;;;-0.30;99.90;;;;;;5006831;28;20025;-96
2022/03/07 08:11:29;;;;;;;56.30;20.65;;;-0.30;99.90;;;;;;5022384;28;20033;-96
2022/03/07 08:13:58;;;;;;;55.47;22.88;;;-0.10;99.90;;;;;;5024052;28;20057;-95
2022/03/07 08:16:30;;;;;;;58.70;23.27;;;0.40;99.90;;;;;;5006782;28;20033;-95
2022/03/07 08:19:21;;;;;;;58.95;23.17;;;0.50;99.90;;;;;;5038591;28;20022;-95
2022/03/07 08:21:52;;;;;;;63.13;23.10;;;1.20;99.90;;;;;;5038362;28;20025;-95
2022/03/07 08:24:23;;;;;;;55.17;23.30;;;0.40;99.90;;;;;;5022592;28;20033;-95
2022/03/07 08:26:59;;;;;;;56.28;20.20;;;0.30;99.90;;;;;;5022721;28;20030;-95
2022/03/07 08:29:34;;;;;;;44.58;19.38;;;0.40;99.90;;;;;;5007054;28;20013;-94
2022/03/07 08:32:16;;;;;;;48.30;19.33;;;1.20;99.90;;;;;;5021972;28;20029;-94
2022/03/07 08:34:58;;;;;;;45.15;19.10;;;0.50;99.90;;;;;;5038214;28;20026;-94
2022/03/07 08:37:47;;;;;;;42.67;18.75;;;1.50;99.90;;;;;;5025928;28;20030;-94
2022/03/07 08:40:37;;;;;;;44.22;18.25;;;0.60;99.90;;;;;;5012518;28;20050;-94
2022/03/07 08:43:03;;;;;;;42.28;17.17;;;1.40;99.90;;;;;;5012233;28;20052;-94
2022/03/07 08:45:49;;;;;;;42.88;17.25;;;1.90;99.90;;;;;;5027666;28;20025;-95
2022/03/07 08:48:29;;;;;;;34.42;16.55;;;1.50;99.90;;;;;;5026551;28;20045;-94
2022/03/07 08:51:04;;;;;;;40.17;16.83;;;2.10;99.90;;;;;;5026453;28;20058;-93
2022/03/07 08:54:14;;;;;;;;;;;;;;;;;;;;;
2022/03/07 08:57:08;;;;;;;28.80;14.80;;;2.00;99.90;;;;;;5041034;28;20030;-94
2022/03/07 08:59:49;;;;;;;;;;;;;;;;;;;;;
2022/03/07 09:02:42;;;;;;;25.42;8.13;;;2.00;99.90;;;;;;5041665;28;20096;-95
2022/03/07 09:05:29;;;;;;;;;;;;;;;;;;;;;
2022/03/07 09:08:01;;;;;;;22.17;10.05;;;1.70;99.90;;;;;;5041441;28;20089;-95
2022/03/07 09:10:50;;;;;;;23.38;10.73;;;3.30;99.90;;;;;;5010367;28;20029;-95
2022/03/07 09:13:55;;;;;;;;;;;;;;;;;;;;;
2022/03/07 09:19:50;;;;;;;24.08;9.68;;;3.10;99.90;;;;;;5044575;28;20032;-95
2022/03/07 09:23:11;;;;;;;18.98;7.80;;;3.50;99.90;;;;;;5041602;28;20022;-94
2022/03/07 09:26:14;;;;;;;11.07;5.75;;;2.50;99.90;;;;;;5026820;28;20065;-94
2022/03/07 09:29:00;;;;;;;18.45;6.90;;;3.30;99.90;;;;;;5008365;28;20029;-94
2022/03/07 09:31:42;;;;;;;15.18;6.68;;;3.30;99.90;;;;;;5008352;28;20018;-95
2022/03/07 09:34:50;;;;;;;12.20;5.63;;;3.30;99.90;;;;;;4992874;28;20099;-95
2022/03/07 09:37:44;;;;;;;10.00;5.60;;;3.60;99.90;;;;;;5010324;28;20068;-95
2022/03/07 09:40:34;;;;;;;;;;;;;;;;;;;;;
2022/03/07 09:43:26;;;;;;;9.05;2.70;;;3.80;99.90;;;;;;5004536;28;20018;-95
2022/03/07 09:46:04;;;;;;;6.47;3.17;;;3.80;99.90;;;;;;5004380;28;20037;-95
2022/03/07 09:48:50;;;;;;;14.63;2.90;;;4.60;99.90;;;;;;5020501;28;20026;-95
2022/03/07 09:52:01;;;;;;;8.05;2.67;;;4.40;99.90;;;;;;5003922;28;20045;-95
2022/03/07 09:55:00;;;;;;;;;;;;;;;;;;;;;
2022/03/07 09:58:11;;;;;;;;;;;;;;;;;;;;;
2022/03/07 10:01:19;;;;;;;14.20;3.58;;;3.90;99.90;;;;;;5020631;28;20062;-95
2022/03/07 10:04:31;;;;;;;7.05;3.30;;;4.60;99.90;;;;;;4982605;28;20054;-95
2022/03/07 10:07:31;;;;;;;9.60;3.88;;;4.20;99.90;;;;;;5018846;28;20030;-95
2022/03/07 10:10:34;;;;;;;8.80;3.67;;;5.10;99.90;;;;;;5021346;28;20035;-95
2022/03/07 10:13:26;;;;;;;13.20;2.83;;;6.10;99.90;;;;;;5005402;28;20023;-94
2022/03/07 10:16:12;;;;;;;15.57;2.45;;;6.50;99.90;;;;;;5009855;28;20034;-95
2022/03/07 10:19:46;;;;;;;8.73;1.95;;;6.90;99.90;;;;;;5008437;28;20025;-95
2022/03/07 10:22:48;;;;;;;9.43;2.22;;;6.90;99.90;;;;;;5021223;28;20053;-96
2022/03/07 10:25:34;;;;;;;6.07;2.47;;;6.30;99.90;;;;;;4948087;29;20035;-96
2022/03/07 10:28:33;;;;;;;8.07;2.50;;;6.80;99.90;;;;;;5020904;28;20068;-96
2022/03/07 10:31:23;;;;;;;9.13;2.75;;;6.80;99.90;;;;;;4989220;28;20026;-96
2022/03/07 10:34:15;;;;;;;9.73;3.08;;;7.20;99.90;;;;;;5021642;28;20030;-95
2022/03/07 10:36:59;;;;;;;9.00;2.80;;;6.40;99.90;;;;;;5005575;28;20025;-95
2022/03/07 10:39:52;;;;;;;8.23;2.75;;;6.40;99.90;;;;;;5011057;28;20034;-95
2022/03/07 10:42:53;;;;;;;10.63;2.60;;;6.60;99.90;;;;;;5040327;28;20026;-95
2022/03/07 10:46:22;;;;;;;6.25;2.42;;;6.00;99.90;;;;;;5014104;28;20029;-96
2022/03/07 10:53:34;;;;;;;;;;;;;;;;;;;;;
2022/03/07 11:08:47;;;;;;;6.20;2.10;;;8.00;99.90;;;;;;4922495;29;20121;-94
2022/03/07 11:11:44;;;;;;;6.70;2.58;;;8.10;99.90;;;;;;4924492;29;20032;-95
2022/03/07 11:19:09;;;;;;;;;;;;;;;;;;;;;
2022/03/07 11:21:50;;;;;;;5.15;1.70;;;9.40;99.90;;;;;;4957077;29;20035;-95
2022/03/07 11:24:46;;;;;;;5.30;1.80;;;10.00;99.90;;;;;;4945906;29;20038;-95
2022/03/07 11:27:28;;;;;;;6.10;1.80;;;10.20;99.90;;;;;;4929477;29;20091;-95
2022/03/07 11:38:40;;;;;;;6.28;2.10;;;10.10;99.90;;;;;;5019639;28;20200;-95
2022/03/07 11:42:15;;;;;;;5.05;2.10;;;9.80;99.90;;;;;;5016049;28;20030;-95
2022/03/07 11:45:21;;;;;;;5.90;1.42;;;9.80;99.90;;;;;;5010145;28;20052;-95
2022/03/07 11:48:29;;;;;;;4.47;2.10;;;9.20;99.90;;;;;;5019202;28;20050;-96
2022/03/07 11:51:44;;;;;;;4.25;1.40;;;8.30;99.90;;;;;;4997852;28;20093;-95
2022/03/07 11:54:21;;;;;;;3.95;1.10;;;8.80;99.90;;;;;;4985680;28;20033;-95
2022/03/07 11:57:15;;;;;;;4.80;1.42;;;9.50;94.20;;;;;;5003426;28;20039;-95
2022/03/07 12:00:27;;;;;;;4.72;1.38;;;9.50;92.80;;;;;;5022015;28;20033;-96
2022/03/07 12:03:14;;;;;;;3.15;1.30;;;10.10;92.40;;;;;;5039421;28;20022;-95
2022/03/07 12:06:49;;;;;;;3.10;1.30;;;8.10;93.50;;;;;;4996263;28;20026;-96
2022/03/07 12:10:38;;;;;;;9.00;2.15;;;8.90;97.00;;;;;;5044587;28;20032;-96
2022/03/07 12:13:53;;;;;;;5.07;1.35;;;8.90;99.90;;;;;;4922643;29;20064;-96
2022/03/07 12:20:16;;;;;;;7.78;1.40;;;9.30;98.40;;;;;;4915259;29;20055;-96
2022/03/07 12:23:05;;;;;;;8.02;1.70;;;9.50;99.90;;;;;;4929092;29;20100;-96
2022/03/07 12:25:59;;;;;;;5.13;1.70;;;10.00;99.90;;;;;;5027558;28;20030;-96
2022/03/07 12:28:34;;;;;;;2.75;1.08;;;10.10;98.90;;;;;;5038785;28;20030;-96
2022/03/07 12:31:08;;;;;;;5.50;1.55;;;10.60;96.60;;;;;;5022430;28;20045;-95
2022/03/07 12:33:58;;;;;;;3.17;1.23;;;10.20;99.80;;;;;;5054793;28;20041;-96
2022/03/07 12:36:29;;;;;;;2.88;1.40;;;9.00;94.40;;;;;;5022002;28;20025;-96
2022/03/07 12:39:04;;;;;;;4.93;1.02;;;10.70;98.70;;;;;;5006709;28;20033;-96
2022/03/07 12:41:41;;;;;;;2.72;0.90;;;9.20;98.10;;;;;;5018954;28;20061;-95
2022/03/07 12:44:15;;;;;;;3.33;0.88;;;9.00;94.10;;;;;;5023468;28;20030;-96
2022/03/07 12:47:01;;;;;;;3.53;1.30;;;8.70;96.30;;;;;;5025238;28;20028;-96
2022/03/07 12:49:33;;;;;;;3.08;0.73;;;8.60;98.30;;;;;;5022839;28;20022;-96
2022/03/07 12:52:53;;;;;;;3.92;1.27;;;7.90;95.00;;;;;;5022346;28;20082;-96
2022/03/07 12:56:00;;;;;;;2.17;0.80;;;9.30;84.00;;;;;;5024088;28;20030;-95
2022/03/07 12:58:49;;;;;;;4.13;0.88;;;9.70;91.00;;;;;;5038897;28;20057;-96
2022/03/07 13:01:15;;;;;;;2.13;1.00;;;10.20;90.60;;;;;;5038779;28;20014;-96
2022/03/07 13:03:56;;;;;;;4.63;0.90;;;11.40;79.90;;;;;;5038915;28;20018;-95
2022/03/07 13:06:29;;;;;;;3.45;1.02;;;9.80;80.80;;;;;;5038855;28;20025;-95
2022/03/07 13:09:02;;;;;;;3.17;1.33;;;10.80;80.30;;;;;;5038937;28;20018;-96
2022/03/07 13:11:41;;;;;;;2.75;1.10;;;10.40;79.80;;;;;;5022564;28;20018;-96
2022/03/07 13:14:18;;;;;;;4.13;1.27;;;10.00;73.10;;;;;;5023224;28;20102;-96
2022/03/07 13:16:50;;;;;;;3.78;1.00;;;9.70;87.00;;;;;;5038686;28;20033;-96
2022/03/07 13:19:21;;;;;;;4.07;1.20;;;10.80;69.70;;;;;;5038864;28;20064;-96
2022/03/07 13:22:16;;;;;;;6.53;1.73;;;10.10;84.60;;;;;;5039028;28;20017;-96
2022/03/07 13:27:47;;;;;;;2.95;1.17;;;10.50;76.80;;;;;;5042220;28;20041;-96
2022/03/07 13:30:14;;;;;;;3.30;1.38;;;10.40;72.30;;;;;;5025923;28;20045;-96
2022/03/07 13:32:41;;;;;;;4.55;0.93;;;11.60;72.00;;;;;;5025685;28;20031;-96
2022/03/07 13:35:27;;;;;;;2.75;1.20;;;11.80;77.80;;;;;;5042034;28;20022;-96
2022/03/07 13:37:58;;;;;;;4.03;1.45;;;11.60;62.40;;;;;;5057607;28;20049;-96
2022/03/07 13:40:36;;;;;;;3.90;1.35;;;12.40;74.40;;;;;;5041883;28;20057;-96
2022/03/07 13:43:05;;;;;;;3.33;0.90;;;11.60;69.90;;;;;;5025743;28;20026;-96
2022/03/07 13:45:34;;;;;;;3.00;0.93;;;11.60;61.90;;;;;;5025460;28;20022;-96
2022/03/07 13:48:04;;;;;;;4.35;1.45;;;11.70;63.30;;;;;;5025845;28;20022;-96
2022/03/07 13:50:33;;;;;;;2.53;1.08;;;11.70;53.10;;;;;;5025601;28;20078;-96
2022/03/07 13:53:08;;;;;;;3.03;1.30;;;10.60;52.30;;;;;;5041936;28;20018;-96
2022/03/07 13:55:42;;;;;;;5.97;1.27;;;10.60;57.80;;;;;;5041920;28;20014;-96
2022/03/07 13:58:28;;;;;;;4.00;1.00;;;11.20;64.50;;;;;;5041677;28;20118;-96
2022/03/07 14:01:14;;;;;;;3.50;1.17;;;10.90;59.00;;;;;;5041899;28;20025;-96